Terminal Aerodrome Forecast
Issued by NWS Sterling, VA

Current Version | Previous Version | Graphics & Text | Print | Product List | Glossary On
Versions: 1 2 3 4 5 6 7 8 9 10 11 12 13 14 15 16 17 18 19 20 21 22 23 24
000
FTUS41 KLWX 031739
TAFMRB
TAF
KMRB 031739Z 0318/0418 17009G18KT 6SM -FZRAPL OVC050
     FM032000 15006KT 6SM -FZRA BR OVC007
     FM040400 22006KT 4SM BR OVC012
     FM041200 28005KT 3SM BR OVC010=

USA.gov is the U.S. government's official web portal to all federal, state and local government web resources and services.